createdAt,value
2023-01-22T00:00:02.899Z,90
2023-01-22T00:00:32.939Z,90
2023-01-22T00:01:21.832Z,90
2023-01-22T00:01:51.446Z,90
2023-01-22T00:02:19.686Z,180
2023-01-22T00:02:47.153Z,180
2023-01-22T00:03:39.870Z,180
2023-01-22T00:04:07.306Z,180
2023-01-22T00:04:39.488Z,180
2023-01-22T00:05:11.948Z,180
2023-01-22T00:05:34.673Z,180
2023-01-22T00:06:06.844Z,180
2023-01-22T00:06:25.799Z,180
2023-01-22T00:06:45.291Z,180
2023-01-22T00:07:16.973Z,180
2023-01-22T00:07:47.210Z,180
2023-01-22T00:08:29.885Z,180
2023-01-22T00:08:59.393Z,180
2023-01-22T00:09:22.180Z,180
2023-01-22T00:09:52.435Z,180
2023-01-22T00:10:24.892Z,180
2023-01-22T00:10:56.898Z,180
2023-01-22T00:11:33.248Z,180
2023-01-22T00:12:16.678Z,180
2023-01-22T00:12:39.225Z,180
2023-01-22T00:13:11.360Z,180
2023-01-22T00:13:41.012Z,180
2023-01-22T00:14:21.357Z,180
2023-01-22T00:14:52.906Z,180
2023-01-22T00:15:25.607Z,180
2023-01-22T00:15:52.832Z,180
2023-01-22T00:16:27.145Z,180
2023-01-22T00:16:57.746Z,180
2023-01-22T00:17:22.230Z,180
2023-01-22T00:17:55.766Z,282
2023-01-22T00:18:25.754Z,293
2023-01-22T00:18:57.752Z,297
2023-01-22T00:19:29.967Z,282
2023-01-22T00:20:03.444Z,180
2023-01-22T00:20:48.748Z,180
2023-01-22T00:21:18.310Z,180
2023-01-22T00:21:51.160Z,90
2023-01-22T00:22:22.197Z,90
2023-01-22T00:22:46.717Z,90
2023-01-22T00:23:18.249Z,90
2023-01-22T00:23:49.744Z,90
2023-01-22T00:24:17.719Z,90
2023-01-22T00:24:39.239Z,90
2023-01-22T00:25:11.858Z,90
2023-01-22T00:25:43.161Z,79
2023-01-22T00:26:25.418Z,83
2023-01-22T00:26:51.973Z,83
2023-01-22T00:27:18.401Z,89
2023-01-22T00:27:35.960Z,89
2023-01-22T00:28:17.007Z,90
2023-01-22T00:28:39.097Z,90
2023-01-22T00:29:21.625Z,90
2023-01-22T00:29:38.712Z,90
2023-01-22T00:30:11.976Z,90
2023-01-22T00:30:34.803Z,90
2023-01-22T00:31:12.809Z,90
2023-01-22T00:31:44.521Z,90
2023-01-22T00:32:16.773Z,90
2023-01-22T00:32:48.447Z,90
2023-01-22T00:33:21.295Z,90
2023-01-22T00:33:50.358Z,90
2023-01-22T00:34:22.009Z,90
2023-01-22T00:34:43.367Z,90
2023-01-22T00:35:29.114Z,90
2023-01-22T00:35:46.289Z,90
2023-01-22T00:36:17.734Z,90
2023-01-22T00:36:45.219Z,180
2023-01-22T00:37:16.711Z,90
2023-01-22T00:37:48.196Z,90
2023-01-22T00:38:20.907Z,90
2023-01-22T00:38:52.609Z,180
2023-01-22T00:39:22.931Z,180
2023-01-22T00:39:47.144Z,180
2023-01-22T00:40:20.114Z,180
2023-01-22T00:40:51.652Z,180
2023-01-22T00:41:23.350Z,180
2023-01-22T00:41:45.119Z,180
2023-01-22T00:42:09.724Z,180
2023-01-22T00:42:42.111Z,180
2023-01-22T00:43:14.386Z,180
2023-01-22T00:43:40.870Z,180
2023-01-22T00:44:12.325Z,90
2023-01-22T00:44:42.954Z,90
2023-01-22T00:45:09.955Z,90
2023-01-22T00:45:39.702Z,90
2023-01-22T00:46:15.779Z,90
2023-01-22T00:46:57.631Z,90
2023-01-22T00:47:39.900Z,90
2023-01-22T00:48:16.806Z,90
2023-01-22T00:48:33.703Z,90
2023-01-22T00:49:37.018Z,90
2023-01-22T00:50:09.532Z,90
2023-01-22T00:50:40.847Z,90
2023-01-22T00:51:13.172Z,90
2023-01-22T00:51:40.840Z,90
2023-01-22T00:52:13.023Z,90
2023-01-22T00:52:45.308Z,90
2023-01-22T00:53:16.831Z,90
2023-01-22T00:53:36.215Z,90
2023-01-22T00:54:02.893Z,90
2023-01-22T00:54:25.708Z,90
2023-01-22T00:55:29.855Z,90
2023-01-22T00:56:17.189Z,90
2023-01-22T00:56:43.695Z,90
2023-01-22T00:57:15.241Z,90
2023-01-22T00:57:46.738Z,90
2023-01-22T00:58:19.030Z,90
2023-01-22T00:58:52.900Z,90
2023-01-22T00:59:14.620Z,90
2023-01-22T00:59:46.112Z,90
2023-01-22T01:00:18.886Z,90
2023-01-22T01:00:51.319Z,90
2023-01-22T01:01:21.255Z,90
2023-01-22T01:01:52.958Z,90
2023-01-22T01:02:24.717Z,180
2023-01-22T01:03:07.995Z,180
2023-01-22T01:03:29.576Z,180
2023-01-22T01:04:16.729Z,180
2023-01-22T01:04:48.236Z,180
2023-01-22T01:05:21.682Z,180
2023-01-22T01:05:37.942Z,180
2023-01-22T01:06:10.771Z,180
2023-01-22T01:06:49.788Z,180
2023-01-22T01:07:21.740Z,180
2023-01-22T01:07:51.460Z,180
2023-01-22T01:08:23.070Z,90
2023-01-22T01:08:55.250Z,90
2023-01-22T01:09:27.573Z,90
2023-01-22T01:09:59.788Z,90
2023-01-22T01:10:31.562Z,90
2023-01-22T01:11:12.699Z,90
2023-01-22T01:11:35.175Z,90
2023-01-22T01:12:01.759Z,180
2023-01-22T01:13:06.314Z,180
2023-01-22T01:13:37.323Z,180
2023-01-22T01:13:53.851Z,180
2023-01-22T01:14:40.834Z,180
2023-01-22T01:15:03.647Z,180
2023-01-22T01:15:34.484Z,180
2023-01-22T01:16:07.044Z,180
2023-01-22T01:16:38.507Z,180
2023-01-22T01:17:21.424Z,180
2023-01-22T01:17:37.951Z,180
2023-01-22T01:18:09.767Z,180
2023-01-22T01:18:37.969Z,180
2023-01-22T01:19:10.152Z,180
2023-01-22T01:19:41.246Z,180
2023-01-22T01:20:13.762Z,180
2023-01-22T01:20:35.027Z,180
2023-01-22T01:21:06.716Z,180
2023-01-22T01:21:51.703Z,180
2023-01-22T01:22:09.723Z,180
2023-01-22T01:22:37.220Z,180
2023-01-22T01:22:57.771Z,180
2023-01-22T01:23:30.055Z,180
2023-01-22T01:24:01.742Z,180
2023-01-22T01:24:56.769Z,180
2023-01-22T01:25:28.563Z,180
2023-01-22T01:25:59.792Z,180
2023-01-22T01:26:32.643Z,180
2023-01-22T01:27:02.119Z,180
2023-01-22T01:27:44.760Z,180
2023-01-22T01:28:16.917Z,180
2023-01-22T01:28:48.412Z,180
2023-01-22T01:29:06.197Z,180
2023-01-22T01:29:36.645Z,180
2023-01-22T01:29:53.824Z,180
2023-01-22T01:30:26.289Z,180
2023-01-22T01:30:56.111Z,90
2023-01-22T01:31:27.514Z,90
2023-01-22T01:31:59.189Z,90
2023-01-22T01:32:25.549Z,90
2023-01-22T01:32:56.640Z,90
2023-01-22T01:33:31.768Z,90
2023-01-22T01:34:03.516Z,90
2023-01-22T01:34:40.984Z,90
2023-01-22T01:35:13.470Z,90
2023-01-22T01:35:29.707Z,90
2023-01-22T01:36:48.104Z,90
2023-01-22T01:37:06.616Z,90
2023-01-22T01:37:37.936Z,90
2023-01-22T01:38:24.730Z,90
2023-01-22T01:38:56.275Z,90
2023-01-22T01:39:15.955Z,90
2023-01-22T01:39:48.139Z,90
2023-01-22T01:40:33.522Z,90
2023-01-22T01:40:54.487Z,90
2023-01-22T01:41:22.193Z,90
2023-01-22T01:41:53.965Z,90
2023-01-22T01:42:26.121Z,90
2023-01-22T01:42:57.540Z,90
2023-01-22T01:43:28.499Z,90
2023-01-22T01:43:49.189Z,90
2023-01-22T01:44:23.157Z,90
2023-01-22T01:44:53.062Z,90
2023-01-22T01:45:34.139Z,90
2023-01-22T01:46:04.785Z,90
2023-01-22T01:46:29.053Z,90
2023-01-22T01:46:57.992Z,90
2023-01-22T01:47:45.627Z,90
2023-01-22T01:48:17.827Z,90
2023-01-22T01:48:54.462Z,90
2023-01-22T01:49:34.054Z,90
2023-01-22T01:50:07.100Z,90
2023-01-22T01:50:33.624Z,90
2023-01-22T01:50:58.233Z,90
2023-01-22T01:51:30.137Z,90
2023-01-22T01:52:01.869Z,90
2023-01-22T01:52:34.250Z,90
2023-01-22T01:53:06.650Z,90
2023-01-22T01:53:49.842Z,90
2023-01-22T01:54:21.812Z,90
2023-01-22T01:55:13.266Z,90
2023-01-22T01:55:29.919Z,90
2023-01-22T01:56:17.457Z,90
2023-01-22T01:56:56.918Z,90
2023-01-22T01:57:23.179Z,90
2023-01-22T01:57:54.784Z,90
2023-01-22T01:58:25.818Z,90
2023-01-22T01:58:45.489Z,90
2023-01-22T01:59:28.826Z,90
2023-01-22T01:59:52.412Z,90
2023-01-22T02:00:25.257Z,90
2023-01-22T02:00:54.308Z,90
2023-01-22T02:01:21.973Z,90
2023-01-22T02:01:53.876Z,90
2023-01-22T02:02:42.715Z,90
2023-01-22T02:03:18.764Z,90
2023-01-22T02:03:48.713Z,90
2023-01-22T02:04:17.813Z,90
2023-01-22T02:04:39.270Z,90
2023-01-22T02:05:11.286Z,90
2023-01-22T02:05:42.730Z,90
2023-01-22T02:06:24.940Z,90
2023-01-22T02:06:57.159Z,90
2023-01-22T02:07:13.590Z,90
2023-01-22T02:07:51.870Z,90
2023-01-22T02:08:23.954Z,90
2023-01-22T02:08:56.190Z,90
2023-01-22T02:09:37.505Z,90
2023-01-22T02:10:10.798Z,90
2023-01-22T02:10:34.723Z,90
2023-01-22T02:11:06.800Z,90
2023-01-22T02:11:29.844Z,90
2023-01-22T02:12:16.839Z,90
2023-01-22T02:12:46.468Z,90
2023-01-22T02:13:08.261Z,90
2023-01-22T02:13:36.243Z,90
2023-01-22T02:14:07.205Z,90
2023-01-22T02:14:39.274Z,90
2023-01-22T02:15:08.745Z,90
2023-01-22T02:15:40.609Z,90
2023-01-22T02:16:08.432Z,90
2023-01-22T02:16:39.752Z,90
2023-01-22T02:17:21.728Z,90
2023-01-22T02:17:50.461Z,90
2023-01-22T02:18:19.998Z,90
2023-01-22T02:18:46.645Z,90
2023-01-22T02:19:28.765Z,90
2023-01-22T02:20:02.887Z,90
2023-01-22T02:20:31.305Z,90
2023-01-22T02:20:51.692Z,90
2023-01-22T02:21:22.529Z,90
2023-01-22T02:21:53.918Z,90
2023-01-22T02:22:25.822Z,90
2023-01-22T02:22:42.696Z,90
2023-01-22T02:23:14.233Z,90
2023-01-22T02:23:46.749Z,90
2023-01-22T02:24:18.590Z,90
2023-01-22T02:24:39.915Z,90
2023-01-22T02:25:10.976Z,90
2023-01-22T02:25:58.557Z,90
2023-01-22T02:26:30.184Z,180
2023-01-22T02:27:01.808Z,180
2023-01-22T02:27:33.019Z,180
2023-01-22T02:28:17.495Z,180
2023-01-22T02:28:39.230Z,180
2023-01-22T02:29:06.315Z,180
2023-01-22T02:29:34.706Z,180
2023-01-22T02:30:08.488Z,180
2023-01-22T02:30:36.904Z,180
2023-01-22T02:31:08.760Z,180
2023-01-22T02:31:40.937Z,180
2023-01-22T02:32:03.285Z,180
2023-01-22T02:32:54.928Z,180
2023-01-22T02:33:36.827Z,180
2023-01-22T02:34:04.331Z,180
2023-01-22T02:34:25.797Z,180
2023-01-22T02:34:42.690Z,180
2023-01-22T02:35:45.980Z,180
2023-01-22T02:36:33.180Z,180
2023-01-22T02:37:00.745Z,180
2023-01-22T02:37:22.599Z,180
2023-01-22T02:37:49.527Z,180
2023-01-22T02:38:21.787Z,180
2023-01-22T02:38:54.270Z,180
2023-01-22T02:39:19.450Z,180
2023-01-22T02:39:51.905Z,180
2023-01-22T02:40:18.511Z,180
2023-01-22T02:40:39.177Z,180
2023-01-22T02:41:11.328Z,180
2023-01-22T02:41:43.561Z,180
2023-01-22T02:42:11.386Z,180
2023-01-22T02:42:43.545Z,180
2023-01-22T02:43:13.756Z,180
2023-01-22T02:43:45.950Z,180
2023-01-22T02:44:32.783Z,180
2023-01-22T02:44:59.474Z,180
2023-01-22T02:45:24.142Z,180
2023-01-22T02:45:53.202Z,180
2023-01-22T02:46:10.104Z,180
2023-01-22T02:46:49.716Z,180
2023-01-22T02:47:21.932Z,180
2023-01-22T02:47:52.933Z,180
2023-01-22T02:48:21.367Z,180
2023-01-22T02:48:39.187Z,180
2023-01-22T02:49:06.259Z,180
2023-01-22T02:49:50.338Z,180
2023-01-22T02:50:17.423Z,180
2023-01-22T02:50:48.438Z,180
2023-01-22T02:51:19.967Z,180
2023-01-22T02:51:51.568Z,180
2023-01-22T02:52:17.790Z,180
2023-01-22T02:52:49.343Z,180
2023-01-22T02:53:21.874Z,180
2023-01-22T02:53:52.959Z,180
2023-01-22T02:54:22.484Z,180
2023-01-22T02:54:41.834Z,180
2023-01-22T02:55:17.172Z,180
2023-01-22T02:55:48.401Z,180
2023-01-22T02:56:20.981Z,180
2023-01-22T02:56:48.231Z,180
2023-01-22T02:57:15.714Z,180
2023-01-22T02:57:48.228Z,180
2023-01-22T02:58:25.987Z,180
2023-01-22T02:58:57.880Z,180
2023-01-22T02:59:30.069Z,180
2023-01-22T03:00:12.554Z,180
2023-01-22T03:00:33.832Z,180
2023-01-22T03:01:13.949Z,180
2023-01-22T03:01:46.105Z,180
2023-01-22T03:02:18.451Z,180
2023-01-22T03:02:45.788Z,180
2023-01-22T03:03:17.263Z,180
2023-01-22T03:03:48.824Z,180
2023-01-22T03:04:21.530Z,180
2023-01-22T03:04:39.185Z,180
2023-01-22T03:05:37.880Z,180
2023-01-22T03:06:22.780Z,180
2023-01-22T03:06:41.804Z,180
2023-01-22T03:07:13.952Z,180
2023-01-22T03:07:43.482Z,180
2023-01-22T03:08:16.168Z,180
2023-01-22T03:08:37.766Z,90
2023-01-22T03:09:09.928Z,90
2023-01-22T03:09:34.638Z,90
2023-01-22T03:10:06.921Z,90
2023-01-22T03:10:37.618Z,90
2023-01-22T03:11:09.205Z,90
2023-01-22T03:11:41.363Z,90
2023-01-22T03:12:07.819Z,90
2023-01-22T03:12:33.799Z,90
2023-01-22T03:13:21.229Z,90
2023-01-22T03:13:47.516Z,90
2023-01-22T03:14:19.012Z,90
2023-01-22T03:14:51.742Z,90
2023-01-22T03:15:19.285Z,90
2023-01-22T03:15:36.499Z,90
2023-01-22T03:16:07.742Z,90
2023-01-22T03:16:48.856Z,90
2023-01-22T03:17:36.661Z,90
2023-01-22T03:18:08.420Z,90
2023-01-22T03:18:25.817Z,90
2023-01-22T03:18:43.070Z,90
2023-01-22T03:19:14.528Z,90
2023-01-22T03:19:46.042Z,90
2023-01-22T03:20:18.922Z,90
2023-01-22T03:20:50.452Z,90
2023-01-22T03:21:23.498Z,90
2023-01-22T03:21:52.983Z,90
2023-01-22T03:22:24.545Z,90
2023-01-22T03:22:41.821Z,90
2023-01-22T03:23:21.980Z,90
2023-01-22T03:23:51.947Z,90
2023-01-22T03:24:17.807Z,90
2023-01-22T03:24:54.605Z,180
2023-01-22T03:25:26.418Z,180
2023-01-22T03:25:57.833Z,180
2023-01-22T03:26:30.113Z,180
2023-01-22T03:26:59.816Z,180
2023-01-22T03:27:31.225Z,180
2023-01-22T03:28:16.800Z,180
2023-01-22T03:28:39.146Z,180
2023-01-22T03:29:06.620Z,180
2023-01-22T03:29:35.647Z,180
2023-01-22T03:30:04.502Z,180
2023-01-22T03:30:25.849Z,180
2023-01-22T03:30:57.719Z,180
2023-01-22T03:31:28.920Z,180
2023-01-22T03:32:00.456Z,180
2023-01-22T03:32:32.548Z,180
2023-01-22T03:33:04.838Z,180
2023-01-22T03:33:34.319Z,180
2023-01-22T03:34:06.979Z,180
2023-01-22T03:34:25.839Z,180
2023-01-22T03:34:42.705Z,180
2023-01-22T03:35:29.861Z,180
2023-01-22T03:36:05.319Z,180
2023-01-22T03:36:37.700Z,180
2023-01-22T03:37:09.261Z,180
2023-01-22T03:37:42.659Z,180
2023-01-22T03:38:14.888Z,180
2023-01-22T03:38:47.058Z,180
2023-01-22T03:39:19.259Z,180
2023-01-22T03:39:52.005Z,180
2023-01-22T03:40:18.512Z,180
2023-01-22T03:40:39.651Z,180
2023-01-22T03:41:11.172Z,180
2023-01-22T03:41:42.711Z,180
2023-01-22T03:42:14.353Z,180
2023-01-22T03:42:34.643Z,180
2023-01-22T03:43:05.042Z,180
2023-01-22T03:43:52.628Z,180
2023-01-22T03:44:24.219Z,180
2023-01-22T03:44:56.407Z,180
2023-01-22T03:45:36.228Z,180
2023-01-22T03:45:53.975Z,180
2023-01-22T03:46:36.971Z,180
2023-01-22T03:47:08.451Z,180
2023-01-22T03:47:39.885Z,180
2023-01-22T03:48:01.873Z,180
2023-01-22T03:48:33.872Z,180
2023-01-22T03:49:32.505Z,180
2023-01-22T03:50:02.293Z,180
2023-01-22T03:50:33.047Z,180
2023-01-22T03:51:04.607Z,180
2023-01-22T03:51:29.942Z,90
2023-01-22T03:52:16.527Z,90
2023-01-22T03:52:50.015Z,90
2023-01-22T03:53:34.875Z,90
2023-01-22T03:53:53.854Z,90
2023-01-22T03:54:25.887Z,90
2023-01-22T03:54:58.092Z,90
2023-01-22T03:55:45.827Z,90
2023-01-22T03:56:27.883Z,90
2023-01-22T03:56:54.291Z,90
2023-01-22T03:57:24.257Z,90
2023-01-22T03:57:44.603Z,90
2023-01-22T03:58:09.869Z,90
2023-01-22T03:58:42.066Z,90
2023-01-22T03:59:25.940Z,90
2023-01-22T03:59:45.830Z,90
2023-01-22T04:00:34.139Z,90
2023-01-22T04:01:21.440Z,90
2023-01-22T04:01:51.588Z,90
2023-01-22T04:02:23.320Z,90
2023-01-22T04:02:50.512Z,90
2023-01-22T04:03:28.942Z,90
2023-01-22T04:03:45.843Z,90
2023-01-22T04:04:17.822Z,90
2023-01-22T04:04:50.094Z,90
2023-01-22T04:05:37.298Z,90
2023-01-22T04:06:25.852Z,90
2023-01-22T04:06:47.313Z,90
2023-01-22T04:07:23.885Z,90
2023-01-22T04:07:51.917Z,90
2023-01-22T04:08:23.567Z,90
2023-01-22T04:08:51.651Z,90
2023-01-22T04:09:26.585Z,90
2023-01-22T04:09:53.965Z,90
2023-01-22T04:10:40.850Z,90
2023-01-22T04:11:12.020Z,90
2023-01-22T04:11:34.335Z,90
2023-01-22T04:12:16.896Z,90
2023-01-22T04:12:50.466Z,90
2023-01-22T04:13:32.032Z,90
2023-01-22T04:14:01.682Z,90
2023-01-22T04:14:33.820Z,90
2023-01-22T04:15:02.315Z,294
2023-01-22T04:15:31.772Z,291
2023-01-22T04:16:04.504Z,297
2023-01-22T04:16:34.347Z,300
2023-01-22T04:17:31.938Z,300
2023-01-22T04:18:03.427Z,307
2023-01-22T04:18:40.902Z,316
2023-01-22T04:19:12.393Z,320
2023-01-22T04:19:44.935Z,326
2023-01-22T04:20:11.659Z,331
2023-01-22T04:20:43.578Z,335
2023-01-22T04:21:10.100Z,332
2023-01-22T04:21:34.661Z,323
2023-01-22T04:21:54.131Z,317
2023-01-22T04:22:40.872Z,315
2023-01-22T04:23:30.224Z,307
2023-01-22T04:24:01.758Z,302
2023-01-22T04:24:47.723Z,298
2023-01-22T04:25:19.573Z,292
2023-01-22T04:25:45.814Z,289
2023-01-22T04:26:17.300Z,295
2023-01-22T04:26:44.701Z,302
2023-01-22T04:27:22.172Z,309
2023-01-22T04:27:45.844Z,318
2023-01-22T04:28:32.954Z,329
2023-01-22T04:29:04.453Z,337
2023-01-22T04:29:36.391Z,344
2023-01-22T04:29:54.618Z,351
2023-01-22T04:30:26.801Z,1
2023-01-22T04:31:10.990Z,12
2023-01-22T04:31:37.571Z,25
2023-01-22T04:32:10.194Z,38
2023-01-22T04:32:41.943Z,43
2023-01-22T04:33:12.688Z,54
2023-01-22T04:33:34.698Z,65
2023-01-22T04:34:07.094Z,71
2023-01-22T04:34:31.375Z,78
2023-01-22T04:35:02.899Z,82
2023-01-22T04:35:32.413Z,83
2023-01-22T04:36:03.898Z,90
2023-01-22T04:36:33.956Z,90
2023-01-22T04:37:22.119Z,90
2023-01-22T04:37:43.068Z,90
2023-01-22T04:38:14.618Z,90
2023-01-22T04:38:44.182Z,90
2023-01-22T04:39:13.867Z,90
2023-01-22T04:39:41.535Z,90
2023-01-22T04:40:11.092Z,90
2023-01-22T04:40:37.331Z,90
2023-01-22T04:41:11.849Z,90
2023-01-22T04:41:43.378Z,90
2023-01-22T04:42:14.231Z,180
2023-01-22T04:42:50.895Z,180
2023-01-22T04:43:23.315Z,180
2023-01-22T04:43:45.855Z,180
2023-01-22T04:44:32.260Z,180
2023-01-22T04:44:53.748Z,180
2023-01-22T04:45:37.670Z,180
2023-01-22T04:46:09.422Z,180
2023-01-22T04:46:31.443Z,180
2023-01-22T04:47:00.775Z,180
2023-01-22T04:47:32.428Z,180
2023-01-22T04:48:03.469Z,180
2023-01-22T04:48:33.867Z,180
2023-01-22T04:49:38.421Z,180
2023-01-22T04:50:25.257Z,180
2023-01-22T04:50:55.300Z,90
2023-01-22T04:51:13.950Z,90
2023-01-22T04:51:37.515Z,90
2023-01-22T04:52:09.057Z,90
2023-01-22T04:52:40.574Z,90
2023-01-22T04:53:05.941Z,90
2023-01-22T04:53:42.903Z,90
2023-01-22T04:54:09.927Z,90
2023-01-22T04:54:49.627Z,90
2023-01-22T04:55:29.892Z,90
2023-01-22T04:56:01.781Z,90
2023-01-22T04:56:33.858Z,90
2023-01-22T04:57:06.552Z,90
2023-01-22T04:57:34.615Z,90
2023-01-22T04:58:06.635Z,90
2023-01-22T04:58:37.623Z,90
2023-01-22T04:59:04.124Z,90
2023-01-22T04:59:36.885Z,90
2023-01-22T05:00:03.723Z,90
2023-01-22T05:00:39.881Z,90
2023-01-22T05:01:11.314Z,90
2023-01-22T05:01:42.851Z,90
2023-01-22T05:02:14.498Z,90
2023-01-22T05:02:41.081Z,90
2023-01-22T05:03:13.475Z,90
2023-01-22T05:03:45.575Z,90
2023-01-22T05:04:18.120Z,90
2023-01-22T05:04:49.709Z,90
2023-01-22T05:05:22.156Z,90
2023-01-22T05:05:39.525Z,90
2023-01-22T05:06:14.217Z,90
2023-01-22T05:06:45.847Z,90
2023-01-22T05:07:17.678Z,90
2023-01-22T05:07:49.149Z,90
2023-01-22T05:08:29.780Z,90
2023-01-22T05:08:49.859Z,90
2023-01-22T05:09:22.762Z,90
2023-01-22T05:09:55.023Z,90
2023-01-22T05:10:27.506Z,90
2023-01-22T05:11:12.850Z,90
2023-01-22T05:11:37.809Z,90
2023-01-22T05:12:16.975Z,90
2023-01-22T05:13:03.580Z,90
2023-01-22T05:13:34.616Z,90
2023-01-22T05:14:06.793Z,90
2023-01-22T05:14:28.293Z,90
2023-01-22T05:15:23.613Z,90
2023-01-22T05:15:44.706Z,90
2023-01-22T05:16:33.545Z,87
2023-01-22T05:17:04.611Z,84
2023-01-22T05:17:22.114Z,80
2023-01-22T05:17:43.714Z,77
2023-01-22T05:18:09.927Z,72
2023-01-22T05:18:41.430Z,72
2023-01-22T05:19:12.931Z,73
2023-01-22T05:19:59.423Z,73
2023-01-22T05:20:26.207Z,77
2023-01-22T05:20:57.550Z,76
2023-01-22T05:21:29.653Z,73
2023-01-22T05:21:57.158Z,68
2023-01-22T05:22:28.673Z,62
2023-01-22T05:22:58.703Z,52
2023-01-22T05:23:30.181Z,39
2023-01-22T05:24:01.926Z,26
2023-01-22T05:24:54.605Z,15
2023-01-22T05:25:35.291Z,5
2023-01-22T05:26:05.137Z,3
2023-01-22T05:26:36.606Z,4
2023-01-22T05:26:58.629Z,4
2023-01-22T05:27:30.826Z,4
2023-01-22T05:28:16.999Z,358
2023-01-22T05:28:44.512Z,352
2023-01-22T05:29:16.086Z,347
2023-01-22T05:29:34.614Z,341
2023-01-22T05:29:53.946Z,337
2023-01-22T05:30:26.700Z,333
2023-01-22T05:30:50.834Z,335
2023-01-22T05:31:31.851Z,338
2023-01-22T05:32:04.172Z,340
2023-01-22T05:32:47.112Z,342
2023-01-22T05:33:19.373Z,344
2023-01-22T05:33:46.837Z,345
2023-01-22T05:34:19.127Z,343
2023-01-22T05:34:51.416Z,342
2023-01-22T05:35:16.353Z,345
2023-01-22T05:35:35.908Z,347
2023-01-22T05:36:07.566Z,348
2023-01-22T05:37:05.027Z,346
2023-01-22T05:37:36.525Z,344
2023-01-22T05:38:04.193Z,341
2023-01-22T05:38:35.286Z,344
2023-01-22T05:39:06.927Z,346
2023-01-22T05:39:35.879Z,344
2023-01-22T05:40:08.399Z,342
2023-01-22T05:40:49.148Z,340
2023-01-22T05:41:23.590Z,343
2023-01-22T05:41:40.769Z,346
2023-01-22T05:42:12.499Z,349
2023-01-22T05:42:38.940Z,352
2023-01-22T05:42:57.965Z,352
2023-01-22T05:43:44.909Z,352
2023-01-22T05:44:09.815Z,352
2023-01-22T05:44:42.916Z,353
2023-01-22T05:45:16.473Z,353
2023-01-22T05:45:47.477Z,349
2023-01-22T05:46:14.988Z,344
2023-01-22T05:46:46.403Z,337
2023-01-22T05:47:13.904Z,332
2023-01-22T05:47:35.610Z,327
2023-01-22T05:48:07.852Z,322
2023-01-22T05:48:49.275Z,315
2023-01-22T05:49:32.733Z,308
2023-01-22T05:49:56.831Z,306
2023-01-22T05:50:28.635Z,304
2023-01-22T05:50:58.940Z,302
2023-01-22T05:51:36.951Z,302
2023-01-22T05:52:05.004Z,302
2023-01-22T05:52:49.199Z,302
2023-01-22T05:53:21.960Z,302
2023-01-22T05:53:39.953Z,303
2023-01-22T05:54:12.160Z,305
2023-01-22T05:54:37.185Z,308
2023-01-22T05:54:58.679Z,310
2023-01-22T05:55:31.418Z,316
2023-01-22T05:56:01.952Z,323
2023-01-22T05:56:34.240Z,331
2023-01-22T05:57:06.472Z,339
2023-01-22T05:57:34.609Z,346
2023-01-22T05:57:57.111Z,353
2023-01-22T05:58:28.771Z,358
2023-01-22T05:58:58.007Z,3
2023-01-22T05:59:30.916Z,7
2023-01-22T06:00:17.903Z,11
2023-01-22T06:00:43.424Z,14
2023-01-22T06:01:14.928Z,17
2023-01-22T06:01:46.491Z,16
2023-01-22T06:02:17.084Z,16
2023-01-22T06:02:49.090Z,16
2023-01-22T06:03:15.003Z,15
2023-01-22T06:03:39.577Z,12
2023-01-22T06:04:11.694Z,9
2023-01-22T06:04:34.227Z,6
2023-01-22T06:05:06.281Z,3
2023-01-22T06:05:34.704Z,360
2023-01-22T06:06:06.818Z,357
2023-01-22T06:06:34.513Z,354
2023-01-22T06:07:05.402Z,351
2023-01-22T06:07:36.920Z,352
2023-01-22T06:08:08.442Z,354
2023-01-22T06:08:40.983Z,356
2023-01-22T06:09:12.456Z,357
2023-01-22T06:09:34.607Z,358
2023-01-22T06:10:03.782Z,359
2023-01-22T06:10:28.999Z,360
2023-01-22T06:10:59.202Z,1
2023-01-22T06:11:45.008Z,359
2023-01-22T06:12:46.994Z,359
2023-01-22T06:13:19.105Z,1
2023-01-22T06:13:50.685Z,5
2023-01-22T06:14:19.262Z,7
2023-01-22T06:14:49.255Z,6
2023-01-22T06:15:31.059Z,5
2023-01-22T06:16:03.747Z,4
2023-01-22T06:16:34.215Z,12
2023-01-22T06:17:05.918Z,19
2023-01-22T06:17:37.775Z,26
2023-01-22T06:18:24.062Z,30
2023-01-22T06:18:53.364Z,27
2023-01-22T06:19:25.564Z,25
2023-01-22T06:19:47.031Z,22
2023-01-22T06:20:19.736Z,20
2023-01-22T06:20:50.863Z,18
2023-01-22T06:21:34.758Z,15
2023-01-22T06:22:04.241Z,12
2023-01-22T06:22:25.934Z,10
2023-01-22T06:22:42.458Z,10
2023-01-22T06:23:13.944Z,8
2023-01-22T06:23:46.202Z,6
2023-01-22T06:24:32.978Z,2
2023-01-22T06:25:38.103Z,1
2023-01-22T06:26:24.901Z,4
2023-01-22T06:26:57.101Z,6
2023-01-22T06:27:28.651Z,8
2023-01-22T06:27:50.271Z,4
2023-01-22T06:28:18.011Z,1
2023-01-22T06:28:55.462Z,358
2023-01-22T06:29:21.937Z,356
2023-01-22T06:29:54.124Z,355
2023-01-22T06:30:36.581Z,353
2023-01-22T06:31:07.669Z,353
2023-01-22T06:31:43.107Z,353
2023-01-22T06:32:15.948Z,352
2023-01-22T06:32:48.618Z,352
2023-01-22T06:33:20.554Z,351
2023-01-22T06:33:49.837Z,351
2023-01-22T06:34:10.114Z,350
2023-01-22T06:34:41.681Z,349
2023-01-22T06:35:14.230Z,350
2023-01-22T06:36:07.360Z,352
2023-01-22T06:36:36.855Z,354
2023-01-22T06:37:08.343Z,356
2023-01-22T06:37:37.918Z,358
2023-01-22T06:38:19.675Z,359
2023-01-22T06:38:58.468Z,359
2023-01-22T06:39:34.936Z,2
2023-01-22T06:40:03.660Z,6
2023-01-22T06:40:39.628Z,9
2023-01-22T06:41:05.943Z,14
2023-01-22T06:41:37.594Z,18
2023-01-22T06:42:09.038Z,22
2023-01-22T06:42:32.777Z,26
2023-01-22T06:43:04.289Z,32
2023-01-22T06:43:36.428Z,37
2023-01-22T06:44:07.998Z,42
2023-01-22T06:44:40.151Z,47
2023-01-22T06:45:19.855Z,52
2023-01-22T06:45:51.730Z,56
2023-01-22T06:46:10.245Z,59
2023-01-22T06:46:34.699Z,62
2023-01-22T06:47:29.039Z,66
2023-01-22T06:48:01.242Z,70
2023-01-22T06:48:32.853Z,75
2023-01-22T06:49:04.119Z,79
2023-01-22T06:49:34.338Z,83
2023-01-22T06:50:05.614Z,84
2023-01-22T06:50:37.553Z,86
2023-01-22T06:51:09.229Z,87
2023-01-22T06:51:44.998Z,88
2023-01-22T06:52:09.494Z,88
2023-01-22T06:52:35.059Z,88
2023-01-22T06:53:06.560Z,88
2023-01-22T06:53:50.379Z,88
2023-01-22T06:54:21.811Z,87
2023-01-22T06:54:53.283Z,88
2023-01-22T06:55:20.182Z,88
2023-01-22T06:55:42.830Z,88
2023-01-22T06:56:15.013Z,89
2023-01-22T06:56:40.661Z,89
2023-01-22T06:57:21.129Z,89
2023-01-22T06:57:52.560Z,88
2023-01-22T06:58:09.966Z,87
2023-01-22T06:58:51.685Z,87
2023-01-22T06:59:20.137Z,86
2023-01-22T06:59:51.931Z,86
2023-01-22T07:00:28.565Z,85
2023-01-22T07:00:55.982Z,84
2023-01-22T07:01:25.542Z,84
2023-01-22T07:01:44.848Z,84
2023-01-22T07:02:18.026Z,84
2023-01-22T07:02:50.170Z,84
2023-01-22T07:03:29.789Z,85
2023-01-22T07:03:46.414Z,87
2023-01-22T07:04:22.974Z,88
2023-01-22T07:04:40.123Z,89
2023-01-22T07:05:23.255Z,90
2023-01-22T07:05:49.338Z,90
2023-01-22T07:06:11.608Z,90
2023-01-22T07:06:43.076Z,90
2023-01-22T07:07:23.937Z,90
2023-01-22T07:07:56.143Z,90
2023-01-22T07:08:28.393Z,90
2023-01-22T07:09:01.005Z,90
2023-01-22T07:09:28.179Z,90
2023-01-22T07:09:53.952Z,90
2023-01-22T07:10:27.058Z,90
2023-01-22T07:11:14.038Z,90
2023-01-22T07:11:41.555Z,90
2023-01-22T07:12:06.134Z,90
2023-01-22T07:12:49.697Z,90
2023-01-22T07:13:22.032Z,90
2023-01-22T07:13:54.220Z,90
2023-01-22T07:14:41.029Z,90
2023-01-22T07:15:13.068Z,90
2023-01-22T07:15:45.388Z,90
2023-01-22T07:16:16.843Z,90
2023-01-22T07:16:34.379Z,90
2023-01-22T07:17:37.749Z,90
2023-01-22T07:18:24.049Z,90
2023-01-22T07:18:56.081Z,90
2023-01-22T07:19:29.055Z,90
2023-01-22T07:20:03.577Z,90
2023-01-22T07:20:32.738Z,90
2023-01-22T07:20:55.004Z,90
2023-01-22T07:21:22.979Z,90
2023-01-22T07:21:44.526Z,90
2023-01-22T07:22:10.800Z,90
2023-01-22T07:22:42.961Z,90
2023-01-22T07:23:14.007Z,90
2023-01-22T07:23:41.524Z,90
2023-01-22T07:24:02.003Z,90
2023-01-22T07:24:34.376Z,90
2023-01-22T07:25:06.125Z,90
2023-01-22T07:25:38.634Z,90
2023-01-22T07:26:25.741Z,90
2023-01-22T07:26:57.211Z,90